Аэропорт: Кемерово. Кемерово

ICAO: UNEE

METAR:
2018/07/16 20:00
UNEE 162000Z 04005MPS CAVOK 15/08 Q1007 R05/CLRD60 NOSIG RMK QFE733
METAR:
2018/07/16 18:23
TAF UNEE 161700Z 1618/1718 02003G08MPS CAVOK 
      TEMPO 1618/1621 3100 BR 
      TEMPO 1621/1702 0400 FG SCT002 
      TEMPO 1703/1715 04008G14MPS